SAS350 ENGM-ENVA
Flight info
| Callsign | SAS350 |
|---|---|
| Flight time | 0h 42m |
| Altitude | 28000 |
| Route | RIBBE1A RIBBE DCT GIGNI DCT VEVOD VEVOD1M |
| Aircraft | A320/M-SDE3FGHIRWY/LB1 |
Departure
| Time | 2026-05-07 07:49 |
|---|---|
| Airport | Oslo-Gardermoen International Airport (ENGM) |
Arrival
| Time | 2026-05-07 08:31 |
|---|---|
| Airport | Trondheim Airport, Værnes (ENVA) |
| Time | Latitude | Longitude | Altitude | Speed | Heading |
|---|---|---|---|---|---|
| 2026-05-07 07:25 | 60.19642 | 11.10200 | 685 ft | 0 kts | 286° |
| 2026-05-07 07:39 | 60.19636 | 11.10237 | 678 ft | 4 kts | 286° |
| 2026-05-07 07:39 | 60.19629 | 11.10289 | 682 ft | 3 kts | 286° |
| 2026-05-07 07:39 | 60.19628 | 11.10297 | 683 ft | 0 kts | 286° |
| 2026-05-07 07:42 | 60.19636 | 11.10297 | 682 ft | 1 kts | 18° |
| 2026-05-07 07:42 | 60.19646 | 11.10357 | 683 ft | 8 kts | 71° |
| 2026-05-07 07:42 | 60.19691 | 11.10465 | 684 ft | 13 kts | 21° |
| 2026-05-07 07:42 | 60.19799 | 11.10523 | 683 ft | 19 kts | 16° |
| 2026-05-07 07:43 | 60.19889 | 11.10532 | 684 ft | 11 kts | 320° |
| 2026-05-07 07:43 | 60.19916 | 11.10399 | 683 ft | 11 kts | 286° |
| 2026-05-07 07:43 | 60.19946 | 11.10190 | 683 ft | 17 kts | 285° |
| 2026-05-07 07:43 | 60.19981 | 11.09946 | 685 ft | 19 kts | 287° |
| 2026-05-07 07:44 | 60.20021 | 11.09672 | 683 ft | 22 kts | 286° |
| 2026-05-07 07:44 | 60.20064 | 11.09370 | 681 ft | 24 kts | 286° |
| 2026-05-07 07:44 | 60.20108 | 11.09048 | 679 ft | 20 kts | 287° |
| 2026-05-07 07:44 | 60.20104 | 11.08868 | 679 ft | 10 kts | 218° |
| 2026-05-07 07:45 | 60.20041 | 11.08825 | 680 ft | 10 kts | 197° |
| 2026-05-07 07:45 | 60.19949 | 11.08769 | 680 ft | 18 kts | 196° |
| 2026-05-07 07:45 | 60.19803 | 11.08686 | 679 ft | 26 kts | 196° |
| 2026-05-07 07:45 | 60.19618 | 11.08582 | 678 ft | 28 kts | 195° |
| 2026-05-07 07:46 | 60.19427 | 11.08470 | 677 ft | 29 kts | 196° |
| 2026-05-07 07:46 | 60.19234 | 11.08362 | 674 ft | 30 kts | 197° |
| 2026-05-07 07:46 | 60.19080 | 11.08272 | 673 ft | 20 kts | 196° |
| 2026-05-07 07:46 | 60.18953 | 11.08196 | 672 ft | 18 kts | 196° |
| 2026-05-07 07:47 | 60.18836 | 11.08128 | 672 ft | 17 kts | 195° |
| 2026-05-07 07:47 | 60.18728 | 11.08070 | 671 ft | 15 kts | 195° |
| 2026-05-07 07:47 | 60.18618 | 11.08004 | 670 ft | 17 kts | 197° |
| 2026-05-07 07:47 | 60.18543 | 11.07930 | 668 ft | 11 kts | 237° |
| 2026-05-07 07:48 | 60.18552 | 11.07767 | 665 ft | 13 kts | 288° |
| 2026-05-07 07:48 | 60.18581 | 11.07585 | 666 ft | 13 kts | 287° |
| 2026-05-07 07:48 | 60.18642 | 11.07465 | 666 ft | 14 kts | 355° |
| 2026-05-07 07:48 | 60.18749 | 11.07515 | 667 ft | 27 kts | 16° |
| 2026-05-07 07:49 | 60.19174 | 11.07765 | 670 ft | 97 kts | 16° |
| 2026-05-07 07:49 | 60.20009 | 11.08246 | 676 ft | 150 kts | 16° |
| 2026-05-07 07:49 | 60.21094 | 11.08875 | 1037 ft | 166 kts | 15° |
| 2026-05-07 07:49 | 60.22223 | 11.09514 | 1790 ft | 171 kts | 15° |
| 2026-05-07 07:50 | 60.23417 | 11.10188 | 2304 ft | 188 kts | 15° |
| 2026-05-07 07:50 | 60.24754 | 11.10954 | 2610 ft | 213 kts | 15° |
| 2026-05-07 07:50 | 60.26285 | 11.11343 | 3118 ft | 234 kts | 354° |
| 2026-05-07 07:50 | 60.27972 | 11.10897 | 3714 ft | 252 kts | 352° |
| 2026-05-07 07:51 | 60.29729 | 11.10360 | 4634 ft | 258 kts | 351° |
| 2026-05-07 07:51 | 60.31515 | 11.09793 | 5539 ft | 262 kts | 351° |
| 2026-05-07 07:51 | 60.33331 | 11.09214 | 6489 ft | 266 kts | 352° |
| 2026-05-07 07:51 | 60.35189 | 11.09326 | 7348 ft | 271 kts | 13° |
| 2026-05-07 07:52 | 60.36967 | 11.10682 | 8242 ft | 276 kts | 21° |
| 2026-05-07 07:52 | 60.38716 | 11.12198 | 9135 ft | 279 kts | 21° |
| 2026-05-07 07:52 | 60.40509 | 11.13770 | 10033 ft | 283 kts | 21° |
| 2026-05-07 07:52 | 60.42364 | 11.15398 | 10522 ft | 301 kts | 21° |
| 2026-05-07 07:53 | 60.44361 | 11.17145 | 10800 ft | 325 kts | 21° |
| 2026-05-07 07:53 | 60.46481 | 11.18997 | 11357 ft | 336 kts | 21° |
| 2026-05-07 07:53 | 60.47917 | 11.20252 | 11832 ft | 340 kts | 20° |
| 2026-05-07 07:53 | 60.50843 | 11.22813 | 12829 ft | 346 kts | 20° |
| 2026-05-07 07:54 | 60.52317 | 11.24106 | 13315 ft | 349 kts | 19° |
| 2026-05-07 07:54 | 60.54562 | 11.26080 | 14053 ft | 354 kts | 19° |
| 2026-05-07 07:54 | 60.56837 | 11.28082 | 14721 ft | 358 kts | 19° |
| 2026-05-07 07:54 | 60.59140 | 11.30110 | 15391 ft | 362 kts | 18° |
| 2026-05-07 07:55 | 60.61470 | 11.32160 | 16038 ft | 367 kts | 18° |
| 2026-05-07 07:55 | 60.63831 | 11.34238 | 16687 ft | 371 kts | 18° |
| 2026-05-07 07:55 | 60.66214 | 11.36340 | 17347 ft | 375 kts | 18° |
| 2026-05-07 07:55 | 60.68626 | 11.38475 | 17986 ft | 380 kts | 17° |
| 2026-05-07 07:56 | 60.71059 | 11.40634 | 18564 ft | 384 kts | 17° |
| 2026-05-07 07:56 | 60.73538 | 11.42737 | 19095 ft | 384 kts | 12° |
| 2026-05-07 07:56 | 60.76105 | 11.44108 | 19633 ft | 380 kts | 2° |
| 2026-05-07 07:56 | 60.78724 | 11.44629 | 20179 ft | 377 kts | 356° |
| 2026-05-07 07:57 | 60.81323 | 11.44931 | 20723 ft | 380 kts | 356° |
| 2026-05-07 07:57 | 60.83976 | 11.45245 | 21261 ft | 384 kts | 355° |
| 2026-05-07 07:57 | 60.86645 | 11.45568 | 21791 ft | 387 kts | 355° |
| 2026-05-07 07:57 | 60.89349 | 11.45904 | 22300 ft | 390 kts | 355° |
| 2026-05-07 07:58 | 60.92066 | 11.46248 | 22821 ft | 393 kts | 355° |
| 2026-05-07 07:58 | 60.94806 | 11.46592 | 23315 ft | 395 kts | 355° |
| 2026-05-07 07:58 | 60.97563 | 11.46931 | 23774 ft | 398 kts | 355° |
| 2026-05-07 07:58 | 61.00348 | 11.47278 | 24182 ft | 401 kts | 355° |
| 2026-05-07 07:59 | 61.03147 | 11.47634 | 24589 ft | 404 kts | 355° |
| 2026-05-07 07:59 | 61.05956 | 11.47991 | 24974 ft | 406 kts | 355° |
| 2026-05-07 07:59 | 61.08788 | 11.48304 | 25364 ft | 407 kts | 354° |
| 2026-05-07 07:59 | 61.11619 | 11.48430 | 25762 ft | 408 kts | 352° |
| 2026-05-07 08:00 | 61.14466 | 11.48425 | 26131 ft | 410 kts | 352° |
| 2026-05-07 08:00 | 61.17319 | 11.48362 | 26521 ft | 412 kts | 351° |
| 2026-05-07 08:00 | 61.20188 | 11.48289 | 26907 ft | 414 kts | 352° |
| 2026-05-07 08:00 | 61.23041 | 11.48239 | 27274 ft | 417 kts | 352° |
| 2026-05-07 08:01 | 61.25954 | 11.48217 | 27650 ft | 420 kts | 352° |
| 2026-05-07 08:01 | 61.28886 | 11.48223 | 27986 ft | 423 kts | 353° |
| 2026-05-07 08:01 | 61.31821 | 11.48249 | 28065 ft | 417 kts | 353° |
| 2026-05-07 08:02 | 61.37558 | 11.48314 | 28067 ft | 410 kts | 353° |
| 2026-05-07 08:02 | 61.43272 | 11.48348 | 28065 ft | 410 kts | 353° |
| 2026-05-07 08:03 | 61.48973 | 11.48354 | 28068 ft | 410 kts | 353° |
| 2026-05-07 08:03 | 61.54680 | 11.48359 | 28066 ft | 410 kts | 353° |
| 2026-05-07 08:04 | 61.60347 | 11.48374 | 28074 ft | 410 kts | 353° |
| 2026-05-07 08:04 | 61.66068 | 11.48407 | 28073 ft | 410 kts | 353° |
| 2026-05-07 08:05 | 61.71782 | 11.48442 | 28074 ft | 410 kts | 353° |
| 2026-05-07 08:05 | 61.77487 | 11.48452 | 28071 ft | 410 kts | 353° |
| 2026-05-07 08:06 | 61.83205 | 11.48456 | 28075 ft | 410 kts | 353° |
| 2026-05-07 08:06 | 61.88880 | 11.48478 | 28075 ft | 410 kts | 353° |
| 2026-05-07 08:07 | 61.94598 | 11.48508 | 28077 ft | 411 kts | 353° |
| 2026-05-07 08:07 | 62.00303 | 11.48445 | 28077 ft | 407 kts | 349° |
| 2026-05-07 08:08 | 62.05926 | 11.47171 | 28074 ft | 405 kts | 347° |
| 2026-05-07 08:08 | 62.11533 | 11.45853 | 28083 ft | 406 kts | 347° |
| 2026-05-07 08:09 | 62.17144 | 11.44556 | 28073 ft | 406 kts | 348° |
| 2026-05-07 08:09 | 62.22764 | 11.43261 | 28082 ft | 406 kts | 348° |
| 2026-05-07 08:10 | 62.28344 | 11.41950 | 28067 ft | 406 kts | 348° |
| 2026-05-07 08:10 | 62.33958 | 11.40619 | 28058 ft | 405 kts | 348° |
| 2026-05-07 08:11 | 62.39568 | 11.39299 | 28047 ft | 405 kts | 348° |
| 2026-05-07 08:11 | 62.45178 | 11.37981 | 28041 ft | 405 kts | 348° |
| 2026-05-07 08:12 | 62.50780 | 11.36641 | 28016 ft | 406 kts | 348° |
| 2026-05-07 08:12 | 62.53593 | 11.35959 | 27701 ft | 404 kts | 348° |
| 2026-05-07 08:12 | 62.56371 | 11.35287 | 27146 ft | 400 kts | 348° |
| 2026-05-07 08:12 | 62.59122 | 11.34628 | 26600 ft | 395 kts | 348° |
| 2026-05-07 08:13 | 62.61838 | 11.33980 | 26065 ft | 391 kts | 348° |
| 2026-05-07 08:13 | 62.64524 | 11.33340 | 25549 ft | 386 kts | 348° |
| 2026-05-07 08:13 | 62.67178 | 11.32708 | 25038 ft | 381 kts | 348° |
| 2026-05-07 08:13 | 62.69797 | 11.32079 | 24554 ft | 377 kts | 348° |
| 2026-05-07 08:14 | 62.72384 | 11.31452 | 24069 ft | 372 kts | 348° |
| 2026-05-07 08:14 | 62.74942 | 11.30831 | 23622 ft | 368 kts | 348° |
| 2026-05-07 08:14 | 62.77442 | 11.30218 | 23121 ft | 363 kts | 348° |
| 2026-05-07 08:14 | 62.79931 | 11.29611 | 22699 ft | 356 kts | 348° |
| 2026-05-07 08:15 | 62.82379 | 11.29017 | 22280 ft | 351 kts | 349° |
| 2026-05-07 08:15 | 62.84803 | 11.28546 | 21856 ft | 348 kts | 352° |
| 2026-05-07 08:15 | 62.87209 | 11.28291 | 21432 ft | 345 kts | 353° |
| 2026-05-07 08:15 | 62.89605 | 11.28148 | 21006 ft | 342 kts | 354° |
| 2026-05-07 08:16 | 62.91980 | 11.28047 | 20571 ft | 340 kts | 355° |
| 2026-05-07 08:16 | 62.94333 | 11.27942 | 20145 ft | 337 kts | 355° |
| 2026-05-07 08:16 | 62.96654 | 11.27501 | 19704 ft | 332 kts | 345° |
| 2026-05-07 08:16 | 62.98847 | 11.26038 | 19258 ft | 327 kts | 334° |
| 2026-05-07 08:17 | 63.00828 | 11.23679 | 18828 ft | 322 kts | 323° |
| 2026-05-07 08:17 | 63.02527 | 11.20587 | 18400 ft | 319 kts | 313° |
| 2026-05-07 08:17 | 63.03948 | 11.16856 | 17932 ft | 317 kts | 306° |
| 2026-05-07 08:17 | 63.05304 | 11.12971 | 17500 ft | 315 kts | 306° |
| 2026-05-07 08:18 | 63.06625 | 11.09206 | 17082 ft | 314 kts | 306° |
| 2026-05-07 08:18 | 63.07959 | 11.05407 | 16662 ft | 312 kts | 306° |
| 2026-05-07 08:18 | 63.09286 | 11.01622 | 16250 ft | 312 kts | 306° |
| 2026-05-07 08:18 | 63.10610 | 10.97837 | 15829 ft | 311 kts | 306° |
| 2026-05-07 08:19 | 63.11929 | 10.94056 | 15408 ft | 310 kts | 306° |
| 2026-05-07 08:19 | 63.13240 | 10.90289 | 15001 ft | 309 kts | 306° |
| 2026-05-07 08:19 | 63.14550 | 10.86510 | 14586 ft | 309 kts | 306° |
| 2026-05-07 08:19 | 63.15859 | 10.82719 | 14172 ft | 310 kts | 306° |
| 2026-05-07 08:20 | 63.17150 | 10.78972 | 14003 ft | 301 kts | 306° |
| 2026-05-07 08:20 | 63.18402 | 10.75345 | 13870 ft | 292 kts | 306° |
| 2026-05-07 08:20 | 63.19620 | 10.71807 | 13735 ft | 284 kts | 306° |
| 2026-05-07 08:20 | 63.20797 | 10.68383 | 13586 ft | 275 kts | 306° |
| 2026-05-07 08:21 | 63.21924 | 10.65014 | 13445 ft | 267 kts | 300° |
| 2026-05-07 08:21 | 63.22660 | 10.61317 | 13306 ft | 259 kts | 283° |
| 2026-05-07 08:21 | 63.22873 | 10.57424 | 13127 ft | 253 kts | 268° |
| 2026-05-07 08:21 | 63.22683 | 10.53587 | 12829 ft | 253 kts | 262° |
| 2026-05-07 08:22 | 63.22451 | 10.49722 | 12504 ft | 254 kts | 262° |
| 2026-05-07 08:22 | 63.22364 | 10.45853 | 12291 ft | 250 kts | 275° |
| 2026-05-07 08:22 | 63.22735 | 10.42107 | 11994 ft | 250 kts | 287° |
| 2026-05-07 08:22 | 63.23271 | 10.38452 | 11674 ft | 248 kts | 287° |
| 2026-05-07 08:23 | 63.23795 | 10.34814 | 11172 ft | 247 kts | 286° |
| 2026-05-07 08:23 | 63.24393 | 10.31264 | 10718 ft | 244 kts | 296° |
| 2026-05-07 08:23 | 63.25366 | 10.28208 | 10359 ft | 243 kts | 310° |
| 2026-05-07 08:23 | 63.26524 | 10.25428 | 10022 ft | 246 kts | 310° |
| 2026-05-07 08:24 | 63.27864 | 10.23023 | 9308 ft | 254 kts | 332° |
| 2026-05-07 08:24 | 63.29611 | 10.22162 | 8556 ft | 265 kts | 1° |
| 2026-05-07 08:24 | 63.31368 | 10.23338 | 7990 ft | 266 kts | 31° |
| 2026-05-07 08:24 | 63.32781 | 10.25907 | 7576 ft | 257 kts | 37° |
| 2026-05-07 08:25 | 63.34184 | 10.28314 | 7085 ft | 253 kts | 35° |
| 2026-05-07 08:25 | 63.35547 | 10.30613 | 6852 ft | 240 kts | 35° |
| 2026-05-07 08:25 | 63.36848 | 10.32813 | 6439 ft | 236 kts | 35° |
| 2026-05-07 08:25 | 63.38145 | 10.35013 | 6002 ft | 234 kts | 35° |
| 2026-05-07 08:26 | 63.40724 | 10.39390 | 5216 ft | 233 kts | 35° |
| 2026-05-07 08:26 | 63.42021 | 10.41590 | 4750 ft | 235 kts | 35° |
| 2026-05-07 08:26 | 63.43329 | 10.43810 | 4267 ft | 237 kts | 35° |
| 2026-05-07 08:27 | 63.44591 | 10.46113 | 3930 ft | 233 kts | 46° |
| 2026-05-07 08:27 | 63.45453 | 10.49117 | 3649 ft | 227 kts | 69° |
| 2026-05-07 08:27 | 63.45762 | 10.52486 | 3373 ft | 218 kts | 91° |
| 2026-05-07 08:27 | 63.45763 | 10.55807 | 3105 ft | 209 kts | 91° |
| 2026-05-07 08:28 | 63.45768 | 10.58973 | 2802 ft | 198 kts | 91° |
| 2026-05-07 08:28 | 63.45771 | 10.61971 | 2525 ft | 188 kts | 91° |
| 2026-05-07 08:28 | 63.45773 | 10.64784 | 2282 ft | 172 kts | 91° |
| 2026-05-07 08:28 | 63.45774 | 10.67385 | 2042 ft | 163 kts | 92° |
| 2026-05-07 08:29 | 63.45775 | 10.69850 | 1831 ft | 154 kts | 92° |
| 2026-05-07 08:29 | 63.45775 | 10.72172 | 1589 ft | 146 kts | 92° |
| 2026-05-07 08:29 | 63.45775 | 10.74419 | 1374 ft | 143 kts | 92° |
| 2026-05-07 08:29 | 63.45774 | 10.76612 | 1167 ft | 140 kts | 91° |
| 2026-05-07 08:30 | 63.45773 | 10.78746 | 970 ft | 138 kts | 91° |
| 2026-05-07 08:30 | 63.45771 | 10.80877 | 786 ft | 137 kts | 91° |
| 2026-05-07 08:30 | 63.45770 | 10.83000 | 605 ft | 136 kts | 91° |
| 2026-05-07 08:30 | 63.45768 | 10.85105 | 427 ft | 136 kts | 91° |
| 2026-05-07 08:31 | 63.45766 | 10.87219 | 247 ft | 136 kts | 91° |
| 2026-05-07 08:31 | 63.45766 | 10.89341 | 62 ft | 137 kts | 91° |
| 2026-05-07 08:31 | 63.45762 | 10.91261 | 36 ft | 92 kts | 90° |
| 2026-05-07 08:31 | 63.45760 | 10.92044 | 40 ft | 21 kts | 90° |
| 2026-05-07 08:32 | 63.45759 | 10.92333 | 41 ft | 11 kts | 90° |
| 2026-05-07 08:32 | 63.45715 | 10.92423 | 42 ft | 8 kts | 174° |
| 2026-05-07 08:32 | 63.45667 | 10.92421 | 42 ft | 7 kts | 181° |
| 2026-05-07 08:32 | 63.45604 | 10.92387 | 40 ft | 10 kts | 225° |
| 2026-05-07 08:33 | 63.45595 | 10.92235 | 41 ft | 10 kts | 271° |
| 2026-05-07 08:33 | 63.45595 | 10.92091 | 41 ft | 9 kts | 270° |
| 2026-05-07 08:33 | 63.45596 | 10.91958 | 40 ft | 8 kts | 270° |
| 2026-05-07 08:33 | 63.45587 | 10.91841 | 39 ft | 7 kts | 235° |
| 2026-05-07 08:34 | 63.45545 | 10.91825 | 37 ft | 5 kts | 174° |
| 2026-05-07 08:34 | 63.45526 | 10.91825 | 39 ft | 2 kts | 179° |
| 2026-05-07 08:34 | 63.45513 | 10.91825 | 39 ft | 1 kts | 180° |
| 2026-05-07 08:34 | 63.45502 | 10.91825 | 39 ft | 1 kts | 180° |
| 2026-05-07 08:35 | 63.45497 | 10.91825 | 39 ft | 0 kts | 180° |